createdAt,value
2022-09-12T00:00:48.852Z,100041.34
2022-09-12T00:03:20.634Z,100043.03
2022-09-12T00:05:50.154Z,100038.84
2022-09-12T00:08:19.226Z,100046.53
2022-09-12T00:10:50.269Z,100037.91
2022-09-12T00:13:19.401Z,100032.78
2022-09-12T00:15:48.743Z,100041.34
2022-09-12T00:18:18.959Z,100031.91
2022-09-12T00:20:49.304Z,100038.81
2022-09-12T00:23:24.956Z,100019.97
2022-09-12T00:25:56.200Z,100034.56
2022-09-12T00:28:30.521Z,100029.44
2022-09-12T00:30:59.482Z,100033.72
2022-09-12T00:33:28.847Z,100024.22
2022-09-12T00:35:57.843Z,100024.22
2022-09-12T00:38:26.994Z,100022.50
2022-09-12T00:40:58.239Z,100020.75
2022-09-12T00:43:38.864Z,100024.22
2022-09-12T00:46:16.593Z,100021.69
2022-09-12T00:48:51.481Z,100017.41
2022-09-12T00:51:25.851Z,100014.84
2022-09-12T00:53:56.979Z,100005.41
2022-09-12T00:56:35.092Z,99985.63
2022-09-12T00:59:09.018Z,100011.47
2022-09-12T01:01:38.987Z,99994.41
2022-09-12T01:04:09.002Z,100017.66
2022-09-12T01:06:41.702Z,100013.38
2022-09-12T01:09:14.403Z,100003.94
2022-09-12T01:11:48.215Z,100010.91
2022-09-12T01:14:19.364Z,100003.16
2022-09-12T01:16:53.708Z,100010.94
2022-09-12T01:19:56.892Z,100009.19
2022-09-12T01:22:45.726Z,99989.44
2022-09-12T01:25:28.508Z,100009.22
2022-09-12T01:28:32.936Z,100014.34
2022-09-12T01:31:09.864Z,100016.06
2022-09-12T01:33:58.232Z,100016.09
2022-09-12T01:36:38.736Z,100016.06
2022-09-12T01:39:14.376Z,100016.94
2022-09-12T01:41:54.248Z,100005.72
2022-09-12T01:44:30.577Z,99967.06
2022-09-12T01:47:08.142Z,100006.53
2022-09-12T01:49:42.929Z,99992.78
2022-09-12T01:52:18.049Z,100005.66
2022-09-12T01:54:52.848Z,100005.63
2022-09-12T01:57:27.319Z,100003.06
2022-09-12T02:02:52.973Z,100006.50
2022-09-12T02:05:29.568Z,100013.38
2022-09-12T02:08:04.622Z,99990.19
2022-09-12T02:10:39.756Z,100002.19
2022-09-12T02:13:20.049Z,100003.03
2022-09-12T02:15:57.890Z,100000.44
2022-09-12T02:18:32.761Z,100016.81
2022-09-12T02:21:10.608Z,99991.91
2022-09-12T02:23:45.469Z,100008.22
2022-09-12T02:26:21.015Z,100003.03
2022-09-12T02:28:52.273Z,100006.47
2022-09-12T02:31:27.918Z,100006.47
2022-09-12T02:34:11.403Z,99992.69
2022-09-12T02:36:59.754Z,100007.25
2022-09-12T02:39:29.137Z,100005.56
2022-09-12T02:42:05.966Z,99998.72
2022-09-12T02:44:37.969Z,100002.09
2022-09-12T02:49:49.563Z,100005.59
2022-09-12T02:52:20.289Z,99995.28
2022-09-12T02:54:55.322Z,100005.63
2022-09-12T02:57:29.570Z,100009.94
2022-09-12T03:00:07.990Z,100000.50
2022-09-12T03:02:53.884Z,100003.09
2022-09-12T03:05:39.479Z,99988.53
2022-09-12T03:08:25.612Z,100010.00
2022-09-12T03:11:26.086Z,100011.69
2022-09-12T03:14:05.601Z,99985.94
2022-09-12T03:16:44.894Z,100013.44
2022-09-12T03:19:23.263Z,100001.38
2022-09-12T03:22:10.145Z,100009.97
2022-09-12T03:24:45.817Z,100015.19
2022-09-12T03:29:59.713Z,100016.09
2022-09-12T03:32:45.101Z,100017.78
2022-09-12T03:35:23.167Z,100015.22
2022-09-12T03:37:55.039Z,100012.59
2022-09-12T03:40:24.257Z,100008.28
2022-09-12T03:42:53.264Z,99968.75
2022-09-12T03:45:22.552Z,99989.34
2022-09-12T03:47:56.799Z,99991.91
2022-09-12T03:50:34.129Z,99998.84
2022-09-12T03:53:05.681Z,99985.94
2022-09-12T03:58:11.170Z,99991.09
2022-09-12T04:00:42.509Z,99991.09
2022-09-12T04:03:12.061Z,99994.53
2022-09-12T04:05:41.138Z,99985.09
2022-09-12T04:08:14.142Z,99964.47
2022-09-12T04:10:43.634Z,99992.81
2022-09-12T04:13:17.986Z,99986.81
2022-09-12T04:15:57.961Z,100010.03
2022-09-12T04:18:27.104Z,99985.97
2022-09-12T04:20:56.471Z,99998.03
2022-09-12T04:23:32.644Z,100006.66
2022-09-12T04:26:03.439Z,100002.38
2022-09-12T04:28:32.702Z,100007.53
2022-09-12T04:31:08.604Z,100006.66
2022-09-12T04:33:43.630Z,100004.06
2022-09-12T04:36:31.360Z,100001.50
2022-09-12T04:39:03.339Z,100002.38
2022-09-12T04:41:34.300Z,99998.91
2022-09-12T04:44:12.118Z,99992.00
2022-09-12T04:46:44.268Z,99996.31
2022-09-12T04:49:14.306Z,99997.16
2022-09-12T04:51:44.543Z,99996.31
2022-09-12T04:54:18.218Z,99994.59
2022-09-12T04:56:50.178Z,100001.50
2022-09-12T04:59:25.490Z,99998.03
2022-09-12T05:02:00.963Z,100000.63
2022-09-12T05:04:36.198Z,100000.59
2022-09-12T05:07:05.476Z,99995.44
2022-09-12T05:09:41.765Z,99968.81
2022-09-12T05:12:10.893Z,99997.97
2022-09-12T05:14:40.224Z,99998.84
2022-09-12T05:17:09.567Z,99990.19
2022-09-12T05:19:38.807Z,99996.16
2022-09-12T05:22:08.091Z,99997.09
2022-09-12T05:24:50.590Z,99993.63
2022-09-12T05:27:20.579Z,99986.69
2022-09-12T05:29:50.049Z,99989.28
2022-09-12T05:32:19.252Z,99979.91
2022-09-12T05:34:48.570Z,100002.06
2022-09-12T05:37:18.479Z,99960.75
2022-09-12T05:39:49.608Z,99960.69
2022-09-12T05:42:18.686Z,99977.00
2022-09-12T05:44:49.743Z,99989.03
2022-09-12T05:47:19.134Z,99990.69
2022-09-12T05:49:50.862Z,99971.69
2022-09-12T05:52:19.948Z,99981.97
2022-09-12T05:54:50.820Z,99976.88
2022-09-12T05:57:20.011Z,99975.25
2022-09-12T05:59:49.381Z,99951.19
2022-09-12T06:02:18.770Z,99977.88
2022-09-12T06:04:48.438Z,99979.59
2022-09-12T06:07:27.778Z,99980.50
2022-09-12T06:09:59.830Z,99981.34
2022-09-12T06:12:39.058Z,99978.75
2022-09-12T06:15:09.445Z,99970.16
2022-09-12T06:17:38.512Z,99979.69
2022-09-12T06:20:14.019Z,99970.25
2022-09-12T06:22:43.730Z,99986.63
2022-09-12T06:25:14.924Z,99996.13
2022-09-12T06:27:43.926Z,99985.78
2022-09-12T06:30:25.625Z,99986.63
2022-09-12T06:32:56.411Z,99978.03
2022-09-12T06:35:26.220Z,99968.50
2022-09-12T06:38:00.251Z,99965.16
2022-09-12T06:40:36.630Z,99990.03
2022-09-12T06:43:05.669Z,99993.38
2022-09-12T06:45:35.387Z,99981.38
2022-09-12T06:48:05.327Z,99994.91
2022-09-12T06:50:34.435Z,99990.50
2022-09-12T06:53:03.763Z,99988.66
2022-09-12T06:55:34.850Z,99982.41
2022-09-12T06:58:14.939Z,99986.44
2022-09-12T07:00:43.991Z,99977.53
2022-09-12T07:03:13.402Z,99978.16
2022-09-12T07:05:42.399Z,99978.00
2022-09-12T07:08:16.542Z,99975.13
2022-09-12T07:10:47.565Z,99982.69
2022-09-12T07:13:24.152Z,99990.28
2022-09-12T07:15:53.543Z,99979.75
2022-09-12T07:18:27.715Z,99985.53
2022-09-12T07:20:56.888Z,99987.94
2022-09-12T07:23:25.869Z,99987.75
2022-09-12T07:25:58.049Z,99988.41
2022-09-12T07:28:29.818Z,99970.16
2022-09-12T07:30:59.819Z,99991.63
2022-09-12T07:33:30.606Z,99987.53
2022-09-12T07:36:06.012Z,99992.91
2022-09-12T07:38:35.197Z,99995.75
2022-09-12T07:41:12.609Z,100000.06
2022-09-12T07:43:42.092Z,100000.84
2022-09-12T07:46:11.982Z,100001.91
2022-09-12T07:48:41.976Z,100015.16
2022-09-12T07:51:12.918Z,99986.06
2022-09-12T07:53:43.777Z,100000.91
2022-09-12T07:56:15.349Z,99996.69
2022-09-12T07:58:45.261Z,100004.50
2022-09-12T08:01:20.974Z,100011.41
2022-09-12T08:03:52.556Z,99999.47
2022-09-12T08:06:23.890Z,100002.84
2022-09-12T08:08:53.799Z,99992.56
2022-09-12T08:11:27.412Z,100001.16
2022-09-12T08:13:57.789Z,100006.34
2022-09-12T08:16:29.872Z,99993.16
2022-09-12T08:18:59.631Z,100002.31
2022-09-12T08:21:35.425Z,99996.88
2022-09-12T08:24:06.863Z,99995.25
2022-09-12T08:26:37.969Z,100003.69
2022-09-12T08:29:07.129Z,99993.34
2022-09-12T08:31:36.934Z,99992.38
2022-09-12T08:34:07.676Z,99989.03
2022-09-12T08:36:37.250Z,99994.94
2022-09-12T08:39:16.078Z,99969.91
2022-09-12T08:41:49.305Z,99989.75
2022-09-12T08:44:44.152Z,99991.63
2022-09-12T08:47:24.458Z,99984.94
2022-09-12T08:50:14.584Z,99984.16
2022-09-12T08:52:52.660Z,99991.72
2022-09-12T08:58:15.664Z,99987.94
2022-09-12T09:00:53.603Z,99983.47
2022-09-12T09:03:46.324Z,99973.19
2022-09-12T09:06:31.166Z,99990.44
2022-09-12T09:09:07.688Z,99975.53
2022-09-12T09:11:50.702Z,99991.53
2022-09-12T09:14:51.451Z,99985.09
2022-09-12T09:17:33.148Z,99995.38
2022-09-12T09:20:11.327Z,99988.50
2022-09-12T09:22:45.775Z,99990.38
2022-09-12T09:25:22.886Z,99993.84
2022-09-12T09:28:07.616Z,99971.03
2022-09-12T09:30:39.507Z,99990.28
2022-09-12T09:33:12.201Z,99954.34
2022-09-12T09:35:47.041Z,99976.22
2022-09-12T09:38:27.147Z,99993.66
2022-09-12T09:41:14.369Z,100005.56
2022-09-12T09:43:44.166Z,99986.13
2022-09-12T09:46:15.830Z,99980.66
2022-09-12T09:48:49.119Z,99999.78
2022-09-12T09:51:24.379Z,100000.75
2022-09-12T09:53:56.278Z,99987.81
2022-09-12T09:56:29.411Z,99999.38
2022-09-12T09:59:03.876Z,99984.91
2022-09-12T10:01:36.297Z,99989.16
2022-09-12T10:04:06.953Z,100003.19
2022-09-12T10:06:39.744Z,99996.75
2022-09-12T10:09:27.657Z,99996.59
2022-09-12T10:11:58.926Z,99994.31
2022-09-12T10:14:43.221Z,99991.84
2022-09-12T10:17:34.222Z,99980.31
2022-09-12T10:20:22.740Z,99989.88
2022-09-12T10:22:52.225Z,99981.47
2022-09-12T10:25:22.422Z,99965.22
2022-09-12T10:27:56.896Z,99988.06
2022-09-12T10:30:31.154Z,99986.16
2022-09-12T10:33:14.762Z,99989.00
2022-09-12T10:35:51.560Z,99990.31
2022-09-12T10:38:26.348Z,99968.25
2022-09-12T10:41:01.206Z,99978.47
2022-09-12T10:43:36.887Z,99984.63
2022-09-12T10:46:29.583Z,99985.31
2022-09-12T10:49:37.675Z,99982.59
2022-09-12T10:52:22.925Z,99979.78
2022-09-12T10:54:52.762Z,99979.59
2022-09-12T10:57:50.790Z,99980.22
2022-09-12T11:00:27.282Z,99975.69
2022-09-12T11:03:05.556Z,99970.75
2022-09-12T11:05:52.804Z,99978.25
2022-09-12T11:08:57.367Z,99975.41
2022-09-12T11:11:38.852Z,99978.88
2022-09-12T11:14:26.322Z,99982.63
2022-09-12T11:17:11.644Z,99967.91
2022-09-12T11:20:00.728Z,99983.38
2022-09-12T11:22:45.784Z,99984.66
2022-09-12T11:25:30.967Z,99985.78
2022-09-12T11:28:20.936Z,99977.47
2022-09-12T11:31:15.331Z,99979.97
2022-09-12T11:33:45.960Z,99976.84
2022-09-12T11:36:28.781Z,99965.50
2022-09-12T11:39:14.775Z,99968.44
2022-09-12T11:41:47.593Z,99971.25
2022-09-12T11:44:24.900Z,99969.47
2022-09-12T11:46:54.603Z,99974.97
2022-09-12T11:49:35.283Z,99967.94
2022-09-12T11:52:15.537Z,99952.91
2022-09-12T11:54:53.857Z,99965.97
2022-09-12T11:57:35.785Z,99960.19
2022-09-12T12:00:19.440Z,99948.09
2022-09-12T12:03:00.608Z,99959.34
2022-09-12T12:05:36.140Z,99954.22
2022-09-12T12:08:08.068Z,99945.22
2022-09-12T12:10:39.751Z,99950.59
2022-09-12T12:13:18.291Z,99954.03
2022-09-12T12:15:50.634Z,99949.50
2022-09-12T12:18:23.610Z,99943.13
2022-09-12T12:20:53.581Z,99944.84
2022-09-12T12:23:28.774Z,99946.22
2022-09-12T12:26:02.202Z,99948.84
2022-09-12T12:29:00.650Z,99939.09
2022-09-12T12:31:31.238Z,99932.88
2022-09-12T12:34:23.668Z,99938.84
2022-09-12T12:36:52.748Z,99938.06
2022-09-12T12:40:00.753Z,99938.38
2022-09-12T12:43:10.797Z,99937.94
2022-09-12T12:45:51.800Z,99923.06
2022-09-12T12:48:22.426Z,99930.47
2022-09-12T12:57:04.367Z,99907.72
2022-09-12T12:59:33.940Z,99923.94
2022-09-12T13:02:03.272Z,99923.84
2022-09-12T13:04:34.966Z,99917.47
2022-09-12T13:07:08.651Z,99922.81
2022-09-12T13:09:46.108Z,99924.91
2022-09-12T13:12:25.848Z,99915.47
2022-09-12T13:15:01.358Z,99916.53
2022-09-12T13:17:43.029Z,99922.53
2022-09-12T13:20:30.958Z,99913.69
2022-09-12T13:23:00.563Z,99910.97
2022-09-12T13:25:37.750Z,99909.16
2022-09-12T13:28:19.626Z,99914.00
2022-09-12T13:30:56.641Z,99919.16
2022-09-12T13:33:36.684Z,99907.88
2022-09-12T13:36:20.685Z,99905.03
2022-09-12T13:39:05.849Z,99903.09
2022-09-12T13:41:53.512Z,99904.22
2022-09-12T13:44:26.255Z,99827.16
2022-09-12T13:46:57.562Z,99908.94
2022-09-12T13:49:34.569Z,99904.78
2022-09-12T13:52:07.141Z,99913.59
2022-09-12T13:54:39.776Z,99904.88
2022-09-12T13:57:30.458Z,99906.38
2022-09-12T14:00:05.434Z,99899.28
2022-09-12T14:02:37.378Z,99896.63
2022-09-12T14:05:19.656Z,99895.50
2022-09-12T14:07:56.574Z,99879.97
2022-09-12T14:10:34.353Z,99896.63
2022-09-12T14:13:06.768Z,99899.31
2022-09-12T14:15:39.490Z,99888.06
2022-09-12T14:18:10.026Z,99881.41
2022-09-12T14:20:42.537Z,99905.50
2022-09-12T14:23:21.070Z,99902.00
2022-09-12T14:25:51.886Z,99880.81
2022-09-12T14:28:23.634Z,99882.66
2022-09-12T14:31:06.752Z,99892.25
2022-09-12T14:33:53.948Z,99895.16
2022-09-12T14:36:27.207Z,99893.75
2022-09-12T14:39:04.417Z,99896.59
2022-09-12T14:41:37.822Z,99905.59
2022-09-12T14:44:10.573Z,99902.22
2022-09-12T14:46:52.477Z,99900.72
2022-09-12T14:49:28.584Z,99902.38
2022-09-12T14:52:02.961Z,99915.38
2022-09-12T14:54:47.146Z,99910.16
2022-09-12T14:57:34.105Z,99911.72
2022-09-12T15:00:21.849Z,99914.19
2022-09-12T15:02:55.080Z,99913.59
2022-09-12T15:05:29.594Z,99911.03
2022-09-12T15:08:01.185Z,99900.84
2022-09-12T15:10:33.256Z,99916.66
2022-09-12T15:13:13.768Z,99899.50
2022-09-12T15:15:44.646Z,99924.81
2022-09-12T15:18:21.769Z,99917.28
2022-09-12T15:20:53.529Z,99921.88
2022-09-12T15:23:31.285Z,99917.50
2022-09-12T15:26:00.949Z,99932.69
2022-09-12T15:28:31.862Z,99930.41
2022-09-12T15:31:07.801Z,99926.16
2022-09-12T15:33:39.184Z,99929.56
2022-09-12T15:36:17.242Z,99939.94
2022-09-12T15:38:52.409Z,99934.03
2022-09-12T15:41:33.334Z,99915.34
2022-09-12T15:44:07.676Z,99925.53
2022-09-12T15:46:36.939Z,99923.16
2022-09-12T15:49:08.851Z,99935.16
2022-09-12T15:51:38.407Z,99933.50
2022-09-12T15:54:07.764Z,99935.50
2022-09-12T15:56:36.968Z,99936.28
2022-09-12T15:59:07.902Z,99945.84
2022-09-12T16:01:37.306Z,99922.59
2022-09-12T16:04:23.398Z,99945.97
2022-09-12T16:06:54.946Z,99951.28
2022-09-12T16:12:00.135Z,99948.88
2022-09-12T16:14:29.408Z,99950.53
2022-09-12T16:17:03.990Z,99961.78
2022-09-12T16:19:35.208Z,99961.09
2022-09-12T16:22:04.572Z,99959.47
2022-09-12T16:24:33.608Z,99956.13
2022-09-12T16:27:02.930Z,99960.44
2022-09-12T16:29:32.569Z,99955.28
2022-09-12T16:32:02.265Z,99960.41
2022-09-12T16:34:31.346Z,99949.31
2022-09-12T16:37:02.675Z,99955.38
2022-09-12T16:39:31.981Z,99953.75
2022-09-12T16:42:01.221Z,99956.34
2022-09-12T16:44:31.704Z,99932.28
2022-09-12T16:47:00.809Z,99958.84
2022-09-12T16:49:30.834Z,99958.00
2022-09-12T16:52:02.501Z,99953.72
2022-09-12T16:54:31.535Z,99962.22
2022-09-12T16:57:01.252Z,99963.31
2022-09-12T16:59:30.606Z,99959.97
2022-09-12T17:01:59.948Z,99964.47
2022-09-12T17:04:30.096Z,99964.47
2022-09-12T17:06:59.778Z,99967.88
2022-09-12T17:09:36.019Z,99962.81
2022-09-12T17:12:06.223Z,99960.25
2022-09-12T17:14:35.492Z,99963.66
2022-09-12T17:17:07.155Z,99954.22
2022-09-12T17:19:36.381Z,99969.78
2022-09-12T17:22:05.777Z,99963.69
2022-09-12T17:24:37.095Z,99968.03
2022-09-12T17:27:06.502Z,99958.53
2022-09-12T17:29:36.718Z,99958.53
2022-09-12T17:32:14.429Z,99974.09
2022-09-12T17:34:46.243Z,99968.91
2022-09-12T17:37:15.578Z,99963.69
2022-09-12T17:39:58.289Z,99957.63
2022-09-12T17:42:28.249Z,99949.88
2022-09-12T17:44:57.960Z,99965.41
2022-09-12T17:47:38.844Z,99924.19
2022-09-12T17:50:30.407Z,99967.94
2022-09-12T17:52:59.511Z,99947.16
2022-09-12T17:55:31.928Z,99959.22
2022-09-12T17:58:09.479Z,99964.38
2022-09-12T18:00:56.730Z,99957.50
2022-09-12T18:03:28.682Z,99963.47
2022-09-12T18:05:58.713Z,99966.94
2022-09-12T18:08:27.745Z,99961.75
2022-09-12T18:11:06.444Z,99947.25
2022-09-12T18:13:38.343Z,99967.78
2022-09-12T18:16:10.142Z,99962.63
2022-09-12T18:18:39.349Z,99960.72
2022-09-12T18:21:10.384Z,99960.84
2022-09-12T18:23:39.770Z,99963.41
2022-09-12T18:26:13.548Z,99956.53
2022-09-12T18:28:46.159Z,99958.25
2022-09-12T18:31:18.174Z,99962.56
2022-09-12T18:33:47.868Z,99953.13
2022-09-12T18:36:19.153Z,99955.72
2022-09-12T18:38:49.504Z,99958.44
2022-09-12T18:41:22.460Z,99955.72
2022-09-12T18:44:06.456Z,99957.44
2022-09-12T18:46:37.395Z,99960.09
2022-09-12T18:49:07.337Z,99963.50
2022-09-12T18:51:39.666Z,99967.84
2022-09-12T18:54:17.422Z,99956.72
2022-09-12T18:56:48.608Z,99964.41
2022-09-12T18:59:17.821Z,99967.03
2022-09-12T19:01:47.637Z,99962.75
2022-09-12T19:04:22.031Z,99931.09
2022-09-12T19:06:51.337Z,99961.06
2022-09-12T19:09:22.477Z,99957.63
2022-09-12T19:11:53.769Z,99960.22
2022-09-12T19:14:25.868Z,99951.63
2022-09-12T19:16:55.177Z,99964.53
2022-09-12T19:19:24.426Z,99950.81
2022-09-12T19:22:05.305Z,99942.19
2022-09-12T19:24:34.957Z,99963.69
2022-09-12T19:27:07.343Z,99941.38
2022-09-12T19:29:36.689Z,99955.13
2022-09-12T19:32:06.049Z,99959.44
2022-09-12T19:34:35.397Z,99957.72
2022-09-12T19:37:05.114Z,99950.84
2022-09-12T19:39:34.622Z,99955.16
2022-09-12T19:42:06.412Z,99942.41
2022-09-12T19:44:35.244Z,99954.13
2022-09-12T19:47:04.368Z,99957.72
2022-09-12T19:49:43.880Z,99949.16
2022-09-12T19:52:17.237Z,99954.38
2022-09-12T19:54:51.854Z,99947.56
2022-09-12T19:57:22.861Z,99946.63
2022-09-12T19:59:52.050Z,99943.25
2022-09-12T20:02:21.687Z,99946.69
2022-09-12T20:04:51.114Z,99943.28
2022-09-12T20:07:25.364Z,99948.50
2022-09-12T20:09:55.133Z,99946.78
2022-09-12T20:12:33.709Z,99954.56
2022-09-12T20:15:03.024Z,99944.16
2022-09-12T20:17:32.460Z,99933.88
2022-09-12T20:20:01.808Z,99949.31
2022-09-12T20:22:34.734Z,99946.78
2022-09-12T20:25:11.714Z,99952.88
2022-09-12T20:27:42.823Z,99919.47
2022-09-12T20:30:14.145Z,99946.03
2022-09-12T20:32:44.217Z,99949.47
2022-09-12T20:35:16.943Z,99950.34
2022-09-12T20:37:46.573Z,99949.47
2022-09-12T20:40:15.832Z,99943.56
2022-09-12T20:42:47.130Z,99949.53
2022-09-12T20:45:16.424Z,99934.84
2022-09-12T20:47:45.636Z,99941.81
2022-09-12T20:50:14.862Z,99946.13
2022-09-12T20:52:45.805Z,99937.53
2022-09-12T20:55:15.058Z,99927.97
2022-09-12T20:57:44.145Z,99943.50
2022-09-12T21:00:16.408Z,99938.41
2022-09-12T21:02:45.788Z,99933.25
2022-09-12T21:05:15.100Z,99935.81
2022-09-12T21:07:44.212Z,99936.69
2022-09-12T21:10:13.424Z,99903.22
2022-09-12T21:12:42.550Z,99922.13
2022-09-12T21:15:12.203Z,99923.72
2022-09-12T21:17:43.274Z,99929.78
2022-09-12T21:20:12.967Z,99930.69
2022-09-12T21:22:44.088Z,99928.16
2022-09-12T21:25:13.492Z,99917.00
2022-09-12T21:27:47.625Z,99932.44
2022-09-12T21:30:17.233Z,99926.50
2022-09-12T21:32:48.354Z,99924.75
2022-09-12T21:35:17.834Z,99926.50
2022-09-12T21:37:53.436Z,99913.56
2022-09-12T21:40:22.672Z,99900.66
2022-09-12T21:42:51.817Z,99911.81
2022-09-12T21:45:21.276Z,99911.75
2022-09-12T21:47:52.421Z,99924.69
2022-09-12T21:50:21.969Z,99916.06
2022-09-12T21:52:51.045Z,99917.84
2022-09-12T21:55:26.826Z,99909.22
2022-09-12T21:57:56.199Z,99902.31
2022-09-12T22:00:25.392Z,99885.19
2022-09-12T22:02:56.841Z,99900.59
2022-09-12T22:05:29.502Z,99892.00
2022-09-12T22:08:04.494Z,99891.94
2022-09-12T22:10:33.721Z,99902.31
2022-09-12T22:13:02.916Z,99889.41
2022-09-12T22:15:40.430Z,99900.72
2022-09-12T22:18:12.485Z,99878.47
2022-09-12T22:20:41.700Z,99880.97
2022-09-12T22:23:26.245Z,99893.88
2022-09-12T22:26:02.001Z,99892.06
2022-09-12T22:28:31.729Z,99893.00
2022-09-12T22:31:00.908Z,99886.19
2022-09-12T22:33:32.444Z,99884.50
2022-09-12T22:36:01.993Z,99891.47
2022-09-12T22:38:30.993Z,99894.06
2022-09-12T22:41:06.358Z,99887.19
2022-09-12T22:43:42.268Z,99882.94
2022-09-12T22:46:17.776Z,99880.53
2022-09-12T22:48:48.859Z,99882.16
2022-09-12T22:51:18.600Z,99877.97
2022-09-12T22:53:47.811Z,99892.69
2022-09-12T22:56:17.032Z,99876.50
2022-09-12T22:58:46.212Z,99881.63
2022-09-12T23:01:16.418Z,99885.09
2022-09-12T23:03:45.963Z,99878.22
2022-09-12T23:06:17.162Z,99875.66
2022-09-12T23:08:46.332Z,99876.56
2022-09-12T23:11:17.437Z,99880.84
2022-09-12T23:13:53.972Z,99873.03
2022-09-12T23:16:29.803Z,99875.63
2022-09-12T23:19:03.982Z,99857.63
2022-09-12T23:21:35.396Z,99873.06
2022-09-12T23:24:05.020Z,99876.50
2022-09-12T23:26:34.074Z,99879.13
2022-09-12T23:29:05.609Z,99861.03
2022-09-12T23:31:37.220Z,99851.56
2022-09-12T23:34:12.235Z,99852.41
2022-09-12T23:36:43.233Z,99856.75
2022-09-12T23:39:12.536Z,99861.88
2022-09-12T23:41:42.547Z,99867.09
2022-09-12T23:44:11.806Z,99861.09
2022-09-12T23:46:40.895Z,99858.59
2022-09-12T23:49:10.261Z,99866.31
2022-09-12T23:51:44.328Z,99856.81
2022-09-12T23:54:15.750Z,99858.53
2022-09-12T23:56:45.177Z,99830.97
2022-09-12T23:59:14.224Z,99844.81
